createdAt,value
2022-12-18T10:34:58.305Z,49.40
2022-12-18T10:35:53.320Z,51.00
2022-12-18T10:36:52.459Z,51.80
2022-12-18T10:37:52.219Z,49.40
2022-12-18T10:38:52.173Z,49.00
2022-12-18T10:39:52.120Z,50.30
2022-12-18T10:40:52.057Z,53.50
2022-12-18T10:41:51.990Z,48.60
2022-12-18T10:42:51.929Z,48.60
2022-12-18T10:43:51.869Z,50.30
2022-12-18T10:44:51.820Z,44.30
2022-12-18T10:45:51.744Z,46.70
2022-12-18T10:46:51.818Z,42.80
2022-12-18T10:47:51.620Z,43.40
2022-12-18T10:48:51.553Z,46.00
2022-12-18T10:49:51.462Z,50.30
2022-12-18T10:51:10.505Z,48.00
2022-12-18T10:51:52.318Z,46.80
2022-12-18T10:52:51.240Z,50.40
2022-12-18T10:53:51.167Z,43.20
2022-12-18T10:54:51.089Z,45.50
2022-12-18T10:55:51.011Z,46.30
2022-12-18T10:56:50.929Z,46.50
2022-12-18T10:57:50.850Z,45.20
2022-12-18T10:58:50.778Z,48.20
2022-12-18T10:59:50.692Z,45.70
2022-12-18T11:00:50.633Z,48.80
2022-12-18T11:01:50.603Z,45.20
2022-12-18T11:02:50.551Z,47.10
2022-12-18T11:03:50.443Z,42.30
2022-12-18T11:04:50.289Z,45.00
2022-12-18T11:05:50.204Z,47.40
2022-12-18T11:06:50.151Z,47.00
2022-12-18T11:07:50.032Z,45.50
2022-12-18T11:08:49.945Z,48.50
2022-12-18T11:09:49.850Z,52.90
2022-12-18T11:10:49.769Z,49.10
2022-12-18T11:11:49.682Z,44.30
2022-12-18T11:12:49.602Z,45.60
2022-12-18T11:13:49.482Z,47.00
2022-12-18T11:14:49.448Z,44.90
2022-12-18T11:15:49.412Z,45.80
2022-12-18T11:17:23.853Z,42.70
2022-12-18T11:17:50.120Z,43.80
2022-12-18T11:18:49.021Z,46.10
2022-12-18T11:19:48.912Z,46.00
2022-12-18T11:20:48.822Z,43.40
2022-12-18T11:21:48.732Z,44.50
2022-12-18T11:22:48.622Z,45.60
2022-12-18T11:23:48.522Z,42.30
2022-12-18T11:25:08.343Z,45.60
2022-12-18T11:25:49.336Z,46.10
2022-12-18T11:26:48.260Z,43.60
2022-12-18T11:27:48.142Z,42.90
2022-12-18T11:28:48.034Z,43.80
2022-12-18T11:29:47.923Z,43.30
2022-12-18T11:30:47.852Z,43.50
2022-12-18T11:31:47.745Z,40.60
2022-12-18T11:32:47.616Z,45.40
2022-12-18T11:34:05.147Z,46.20
2022-12-18T11:34:48.412Z,41.60
2022-12-18T11:35:47.292Z,38.40
2022-12-18T11:36:47.203Z,38.70
2022-12-18T11:37:47.086Z,45.30
2022-12-18T11:38:46.986Z,36.10
2022-12-18T11:39:46.870Z,41.30
2022-12-18T11:40:46.769Z,39.00
2022-12-18T16:56:23.898Z,72.50
2022-12-18T16:57:24.667Z,74.60
2022-12-18T16:58:23.836Z,68.90
2022-12-18T16:59:23.747Z,75.40
2022-12-18T17:00:23.707Z,69.80
2022-12-18T17:01:23.827Z,77.70
2022-12-18T17:02:24.451Z,81.50
2022-12-18T17:03:23.677Z,80.70
2022-12-18T17:04:23.496Z,83.30
2022-12-18T17:05:23.471Z,92.40
2022-12-18T17:06:23.387Z,87.40
2022-12-18T17:07:23.322Z,82.70
2022-12-18T17:08:23.291Z,76.20
2022-12-18T17:09:23.217Z,75.20
2022-12-18T17:10:23.157Z,70.50
2022-12-18T17:11:23.079Z,62.90
2022-12-18T17:12:23.033Z,78.10
2022-12-18T17:13:25.868Z,66.30
2022-12-18T17:14:22.901Z,68.70
2022-12-18T17:15:22.825Z,63.90
2022-12-18T17:16:22.848Z,61.50
2022-12-18T17:17:23.604Z,69.00
2022-12-18T17:18:22.640Z,68.40
2022-12-18T17:19:22.569Z,81.80
2022-12-18T17:20:22.511Z,101.10
2022-12-18T17:21:22.490Z,93.70
2022-12-18T17:22:22.374Z,79.40
2022-12-18T17:23:22.328Z,77.80
2022-12-18T17:24:22.240Z,77.20
2022-12-18T17:25:22.196Z,71.20
2022-12-18T17:26:22.109Z,78.30
2022-12-18T17:27:22.059Z,76.10
2022-12-18T17:28:21.991Z,79.30
2022-12-18T17:29:21.921Z,81.80
2022-12-18T17:30:21.849Z,80.70
2022-12-18T17:31:21.840Z,78.40
2022-12-18T17:32:21.750Z,77.30
2022-12-18T17:33:21.650Z,76.90
2022-12-18T17:34:21.610Z,82.20
2022-12-18T17:35:21.531Z,85.00
2022-12-18T17:36:21.472Z,84.10
2022-12-18T17:37:21.402Z,87.50
2022-12-18T17:38:21.330Z,76.30
2022-12-18T17:39:21.273Z,77.30
2022-12-18T17:40:21.206Z,76.50
2022-12-18T17:41:21.133Z,82.00
2022-12-18T17:42:21.101Z,76.10
2022-12-18T17:43:21.011Z,72.80
2022-12-18T17:44:20.941Z,75.40
2022-12-18T17:45:20.872Z,71.90
2022-12-18T17:46:20.858Z,70.90
2022-12-18T17:47:20.743Z,64.50
2022-12-18T17:48:20.697Z,74.10
2022-12-18T17:49:20.611Z,66.60
2022-12-18T17:50:20.550Z,69.00
2022-12-18T17:51:20.494Z,68.90
2022-12-18T17:52:20.436Z,70.20
2022-12-18T17:53:20.364Z,71.60
2022-12-18T17:54:20.290Z,64.10
2022-12-18T17:55:20.212Z,59.10
2022-12-18T17:56:20.155Z,62.50
2022-12-18T17:57:20.079Z,62.10
2022-12-18T17:58:20.011Z,61.40
2022-12-18T17:59:19.962Z,63.20
2022-12-18T18:00:19.896Z,67.80
2022-12-18T18:01:19.950Z,69.00
2022-12-18T18:02:19.956Z,61.30
2022-12-18T18:03:19.881Z,67.00
2022-12-18T18:04:19.742Z,61.60
2022-12-18T18:05:19.562Z,55.50
2022-12-18T18:06:19.514Z,61.30
2022-12-18T18:07:19.434Z,58.10
2022-12-18T18:08:19.393Z,70.00
2022-12-18T18:09:19.340Z,59.90
2022-12-18T18:10:19.273Z,65.20
2022-12-18T18:11:19.203Z,62.70
2022-12-18T18:12:19.158Z,63.30
2022-12-18T18:13:19.097Z,70.50
2022-12-18T18:14:19.063Z,63.40
2022-12-18T18:15:18.964Z,70.60
2022-12-18T18:16:19.026Z,69.10
2022-12-18T18:17:18.833Z,61.10
2022-12-18T18:18:18.783Z,66.80
2022-12-18T18:19:18.753Z,63.20
2022-12-18T18:20:22.500Z,63.00
2022-12-18T18:21:18.594Z,64.30
2022-12-18T18:22:18.736Z,67.10
2022-12-18T18:23:18.493Z,67.80
2022-12-18T18:24:18.445Z,65.90
2022-12-18T18:25:18.377Z,67.30
2022-12-18T18:26:18.296Z,66.70
2022-12-18T18:27:18.234Z,68.00
2022-12-18T18:28:18.187Z,66.70
2022-12-18T18:29:18.134Z,66.90
2022-12-18T18:30:18.085Z,65.60
2022-12-18T18:31:18.036Z,67.20
2022-12-18T18:32:17.946Z,67.90
2022-12-18T18:33:17.885Z,68.40
2022-12-18T18:34:17.830Z,68.50
2022-12-18T18:35:45.063Z,64.90
2022-12-18T18:36:18.695Z,70.50
2022-12-18T18:37:17.657Z,58.70
2022-12-18T18:38:17.565Z,66.60
2022-12-18T18:39:17.518Z,67.30
2022-12-18T18:40:17.465Z,63.80
2022-12-18T18:41:17.359Z,66.70
2022-12-18T18:42:17.309Z,64.40
